sensor_id;sensor_type;location;lat;lon;timestamp;temperature;humidity
8152;DHT22;4117;53.622;9.958;2023-08-30T00:01:13;13.80;1.00
8152;DHT22;4117;53.622;9.958;2023-08-30T00:03:39;13.80;1.00
8152;DHT22;4117;53.622;9.958;2023-08-30T00:06:07;13.70;1.00
8152;DHT22;4117;53.622;9.958;2023-08-30T00:08:34;13.70;1.00
8152;DHT22;4117;53.622;9.958;2023-08-30T00:11:02;13.70;1.00
8152;DHT22;4117;53.622;9.958;2023-08-30T00:13:32;13.70;1.00
8152;DHT22;4117;53.622;9.958;2023-08-30T00:15:59;13.60;1.00
8152;DHT22;4117;53.622;9.958;2023-08-30T00:18:27;13.60;1.00
8152;DHT22;4117;53.622;9.958;2023-08-30T00:20:54;13.60;1.00
8152;DHT22;4117;53.622;9.958;2023-08-30T00:23:22;13.50;1.00
8152;DHT22;4117;53.622;9.958;2023-08-30T00:25:49;13.50;1.00
8152;DHT22;4117;53.622;9.958;2023-08-30T00:28:16;13.50;1.00
8152;DHT22;4117;53.622;9.958;2023-08-30T00:30:44;13.40;1.00
8152;DHT22;4117;53.622;9.958;2023-08-30T00:33:11;13.40;1.00
8152;DHT22;4117;53.622;9.958;2023-08-30T00:35:38;13.40;1.00
8152;DHT22;4117;53.622;9.958;2023-08-30T00:38:05;13.40;1.00
8152;DHT22;4117;53.622;9.958;2023-08-30T00:40:38;13.40;1.00
8152;DHT22;4117;53.622;9.958;2023-08-30T00:43:05;13.30;1.00
8152;DHT22;4117;53.622;9.958;2023-08-30T00:45:32;13.30;1.00
8152;DHT22;4117;53.622;9.958;2023-08-30T00:48:00;13.20;1.00
8152;DHT22;4117;53.622;9.958;2023-08-30T00:50:27;13.20;1.00
8152;DHT22;4117;53.622;9.958;2023-08-30T00:52:54;13.20;1.00
8152;DHT22;4117;53.622;9.958;2023-08-30T00:55:21;13.20;1.00
8152;DHT22;4117;53.622;9.958;2023-08-30T00:57:48;13.10;1.00
8152;DHT22;4117;53.622;9.958;2023-08-30T01:00:15;13.10;1.00
8152;DHT22;4117;53.622;9.958;2023-08-30T01:02:43;13.10;1.00
8152;DHT22;4117;53.622;9.958;2023-08-30T01:05:12;13.10;1.00
8152;DHT22;4117;53.622;9.958;2023-08-30T01:07:40;13.00;1.00
8152;DHT22;4117;53.622;9.958;2023-08-30T01:10:08;13.00;1.00
8152;DHT22;4117;53.622;9.958;2023-08-30T01:12:40;13.00;1.00
8152;DHT22;4117;53.622;9.958;2023-08-30T01:15:13;13.00;1.00
8152;DHT22;4117;53.622;9.958;2023-08-30T01:17:42;12.90;1.00
8152;DHT22;4117;53.622;9.958;2023-08-30T01:20:13;12.90;1.00
8152;DHT22;4117;53.622;9.958;2023-08-30T01:22:47;12.90;1.00
8152;DHT22;4117;53.622;9.958;2023-08-30T01:25:31;12.90;1.00
8152;DHT22;4117;53.622;9.958;2023-08-30T01:28:04;12.90;1.00
8152;DHT22;4117;53.622;9.958;2023-08-30T01:30:34;12.80;1.00
8152;DHT22;4117;53.622;9.958;2023-08-30T01:33:03;12.80;1.00
8152;DHT22;4117;53.622;9.958;2023-08-30T01:35:31;12.80;1.00
8152;DHT22;4117;53.622;9.958;2023-08-30T01:38:02;12.80;1.00
8152;DHT22;4117;53.622;9.958;2023-08-30T01:40:33;12.80;1.00
8152;DHT22;4117;53.622;9.958;2023-08-30T01:43:04;12.80;1.00
8152;DHT22;4117;53.622;9.958;2023-08-30T01:45:35;12.90;1.00
8152;DHT22;4117;53.622;9.958;2023-08-30T01:48:02;12.80;1.00
8152;DHT22;4117;53.622;9.958;2023-08-30T01:50:31;12.80;1.00
8152;DHT22;4117;53.622;9.958;2023-08-30T01:52:59;12.80;1.00
8152;DHT22;4117;53.622;9.958;2023-08-30T01:55:28;12.70;1.00
8152;DHT22;4117;53.622;9.958;2023-08-30T01:57:56;12.70;1.00
8152;DHT22;4117;53.622;9.958;2023-08-30T02:00:24;12.70;1.00
8152;DHT22;4117;53.622;9.958;2023-08-30T02:05:26;12.70;1.00
8152;DHT22;4117;53.622;9.958;2023-08-30T02:07:57;12.70;1.00
8152;DHT22;4117;53.622;9.958;2023-08-30T02:10:31;12.70;1.00
8152;DHT22;4117;53.622;9.958;2023-08-30T02:13:00;12.70;1.00
8152;DHT22;4117;53.622;9.958;2023-08-30T02:15:31;12.70;1.00
8152;DHT22;4117;53.622;9.958;2023-08-30T02:18:00;12.70;1.00
8152;DHT22;4117;53.622;9.958;2023-08-30T02:20:28;12.70;1.00
8152;DHT22;4117;53.622;9.958;2023-08-30T02:22:58;12.70;1.00
8152;DHT22;4117;53.622;9.958;2023-08-30T02:25:25;12.70;1.00
8152;DHT22;4117;53.622;9.958;2023-08-30T02:27:52;12.70;1.00
8152;DHT22;4117;53.622;9.958;2023-08-30T02:30:19;12.70;1.00
8152;DHT22;4117;53.622;9.958;2023-08-30T02:32:47;12.60;1.00
8152;DHT22;4117;53.622;9.958;2023-08-30T02:35:14;12.60;1.00
8152;DHT22;4117;53.622;9.958;2023-08-30T02:37:41;12.70;1.00
8152;DHT22;4117;53.622;9.958;2023-08-30T02:40:09;12.60;1.00
8152;DHT22;4117;53.622;9.958;2023-08-30T02:42:36;12.70;1.00
8152;DHT22;4117;53.622;9.958;2023-08-30T02:45:04;12.70;1.00
8152;DHT22;4117;53.622;9.958;2023-08-30T02:47:32;12.70;1.00
8152;DHT22;4117;53.622;9.958;2023-08-30T02:50:01;12.70;1.00
8152;DHT22;4117;53.622;9.958;2023-08-30T02:52:28;12.70;1.00
8152;DHT22;4117;53.622;9.958;2023-08-30T02:54:55;12.70;1.00
8152;DHT22;4117;53.622;9.958;2023-08-30T02:57:22;12.70;1.00
8152;DHT22;4117;53.622;9.958;2023-08-30T02:59:49;12.70;1.00
8152;DHT22;4117;53.622;9.958;2023-08-30T03:02:15;12.70;1.00
8152;DHT22;4117;53.622;9.958;2023-08-30T03:04:42;12.70;1.00
8152;DHT22;4117;53.622;9.958;2023-08-30T03:07:11;12.70;1.00
8152;DHT22;4117;53.622;9.958;2023-08-30T03:09:37;12.70;1.00
8152;DHT22;4117;53.622;9.958;2023-08-30T03:12:06;12.70;1.00
8152;DHT22;4117;53.622;9.958;2023-08-30T03:14:35;12.70;1.00
8152;DHT22;4117;53.622;9.958;2023-08-30T03:17:03;12.70;1.00
8152;DHT22;4117;53.622;9.958;2023-08-30T03:19:30;12.70;1.00
8152;DHT22;4117;53.622;9.958;2023-08-30T03:22:00;12.70;1.00
8152;DHT22;4117;53.622;9.958;2023-08-30T03:24:28;12.70;1.00
8152;DHT22;4117;53.622;9.958;2023-08-30T03:26:55;12.70;1.00
8152;DHT22;4117;53.622;9.958;2023-08-30T03:29:22;12.70;1.00
8152;DHT22;4117;53.622;9.958;2023-08-30T03:31:49;12.70;1.00
8152;DHT22;4117;53.622;9.958;2023-08-30T03:34:16;12.70;1.00
8152;DHT22;4117;53.622;9.958;2023-08-30T03:36:43;12.70;1.00
8152;DHT22;4117;53.622;9.958;2023-08-30T03:39:21;12.70;1.00
8152;DHT22;4117;53.622;9.958;2023-08-30T03:41:50;12.70;1.00
8152;DHT22;4117;53.622;9.958;2023-08-30T03:44:17;12.70;1.00
8152;DHT22;4117;53.622;9.958;2023-08-30T03:46:44;12.70;1.00
8152;DHT22;4117;53.622;9.958;2023-08-30T03:49:11;12.70;1.00
8152;DHT22;4117;53.622;9.958;2023-08-30T03:51:38;12.70;1.00
8152;DHT22;4117;53.622;9.958;2023-08-30T03:54:05;12.70;1.00
8152;DHT22;4117;53.622;9.958;2023-08-30T03:56:34;12.70;1.00
8152;DHT22;4117;53.622;9.958;2023-08-30T03:59:03;12.80;1.00
8152;DHT22;4117;53.622;9.958;2023-08-30T04:01:30;12.80;1.00
8152;DHT22;4117;53.622;9.958;2023-08-30T04:03:57;12.80;1.00
8152;DHT22;4117;53.622;9.958;2023-08-30T04:06:24;12.80;1.00
8152;DHT22;4117;53.622;9.958;2023-08-30T04:08:51;12.80;1.00
8152;DHT22;4117;53.622;9.958;2023-08-30T04:11:18;12.70;1.00
8152;DHT22;4117;53.622;9.958;2023-08-30T04:13:45;12.70;1.00
8152;DHT22;4117;53.622;9.958;2023-08-30T04:16:13;12.70;1.00
8152;DHT22;4117;53.622;9.958;2023-08-30T04:18:40;12.70;1.00
8152;DHT22;4117;53.622;9.958;2023-08-30T04:21:07;12.70;1.00
8152;DHT22;4117;53.622;9.958;2023-08-30T04:23:34;12.80;1.00
8152;DHT22;4117;53.622;9.958;2023-08-30T04:26:01;12.80;1.00
8152;DHT22;4117;53.622;9.958;2023-08-30T04:28:28;12.80;1.00
8152;DHT22;4117;53.622;9.958;2023-08-30T04:30:56;12.80;1.00
8152;DHT22;4117;53.622;9.958;2023-08-30T04:33:26;12.80;1.00
8152;DHT22;4117;53.622;9.958;2023-08-30T04:35:53;12.80;1.00
8152;DHT22;4117;53.622;9.958;2023-08-30T04:38:20;12.80;1.00
8152;DHT22;4117;53.622;9.958;2023-08-30T04:40:48;12.80;1.00
8152;DHT22;4117;53.622;9.958;2023-08-30T04:43:15;12.80;1.00
8152;DHT22;4117;53.622;9.958;2023-08-30T04:45:42;12.80;1.00
8152;DHT22;4117;53.622;9.958;2023-08-30T04:48:09;12.90;1.00
8152;DHT22;4117;53.622;9.958;2023-08-30T04:50:37;12.90;1.00
8152;DHT22;4117;53.622;9.958;2023-08-30T04:53:04;12.90;1.00
8152;DHT22;4117;53.622;9.958;2023-08-30T04:55:32;12.90;1.00
8152;DHT22;4117;53.622;9.958;2023-08-30T04:57:59;12.90;1.00
8152;DHT22;4117;53.622;9.958;2023-08-30T05:00:26;12.90;1.00
8152;DHT22;4117;53.622;9.958;2023-08-30T05:02:53;13.00;1.00
8152;DHT22;4117;53.622;9.958;2023-08-30T05:05:20;13.00;1.00
8152;DHT22;4117;53.622;9.958;2023-08-30T05:07:48;13.00;1.00
8152;DHT22;4117;53.622;9.958;2023-08-30T05:10:15;13.00;1.00
8152;DHT22;4117;53.622;9.958;2023-08-30T05:12:42;13.10;1.00
8152;DHT22;4117;53.622;9.958;2023-08-30T05:15:13;13.10;1.00
8152;DHT22;4117;53.622;9.958;2023-08-30T05:17:40;13.10;1.00
8152;DHT22;4117;53.622;9.958;2023-08-30T05:20:08;13.10;1.00
8152;DHT22;4117;53.622;9.958;2023-08-30T05:22:35;13.10;1.00
8152;DHT22;4117;53.622;9.958;2023-08-30T05:25:04;13.10;1.00
8152;DHT22;4117;53.622;9.958;2023-08-30T05:27:31;13.20;1.00
8152;DHT22;4117;53.622;9.958;2023-08-30T05:29:58;13.20;1.00
8152;DHT22;4117;53.622;9.958;2023-08-30T05:32:27;13.20;1.00
8152;DHT22;4117;53.622;9.958;2023-08-30T05:34:54;13.20;1.00
8152;DHT22;4117;53.622;9.958;2023-08-30T05:37:21;13.30;1.00
8152;DHT22;4117;53.622;9.958;2023-08-30T05:39:51;13.30;1.00
8152;DHT22;4117;53.622;9.958;2023-08-30T05:42:19;13.40;1.00
8152;DHT22;4117;53.622;9.958;2023-08-30T05:44:46;13.40;1.00
8152;DHT22;4117;53.622;9.958;2023-08-30T05:47:13;13.40;1.00
8152;DHT22;4117;53.622;9.958;2023-08-30T05:49:42;13.40;1.00
8152;DHT22;4117;53.622;9.958;2023-08-30T05:52:09;13.50;1.00
8152;DHT22;4117;53.622;9.958;2023-08-30T05:54:36;13.50;1.00
8152;DHT22;4117;53.622;9.958;2023-08-30T05:57:04;13.60;1.00
8152;DHT22;4117;53.622;9.958;2023-08-30T05:59:32;13.60;1.00
8152;DHT22;4117;53.622;9.958;2023-08-30T06:02:00;13.70;1.00
8152;DHT22;4117;53.622;9.958;2023-08-30T06:04:27;13.70;1.00
8152;DHT22;4117;53.622;9.958;2023-08-30T06:06:54;13.80;1.00
8152;DHT22;4117;53.622;9.958;2023-08-30T06:09:22;13.80;5.20
8152;DHT22;4117;53.622;9.958;2023-08-30T06:11:49;13.90;7.80
8152;DHT22;4117;53.622;9.958;2023-08-30T06:14:15;13.90;9.50
8152;DHT22;4117;53.622;9.958;2023-08-30T06:16:44;13.90;9.90
8152;DHT22;4117;53.622;9.958;2023-08-30T06:19:11;14.00;9.30
8152;DHT22;4117;53.622;9.958;2023-08-30T06:21:38;14.10;19.20
8152;DHT22;4117;53.622;9.958;2023-08-30T06:24:05;14.10;18.70
8152;DHT22;4117;53.622;9.958;2023-08-30T06:26:32;14.10;18.70
8152;DHT22;4117;53.622;9.958;2023-08-30T06:28:59;14.20;18.50
8152;DHT22;4117;53.622;9.958;2023-08-30T06:31:26;14.20;18.50
8152;DHT22;4117;53.622;9.958;2023-08-30T06:33:56;14.30;18.80
8152;DHT22;4117;53.622;9.958;2023-08-30T06:36:23;14.30;18.80
8152;DHT22;4117;53.622;9.958;2023-08-30T06:38:50;14.40;18.30
8152;DHT22;4117;53.622;9.958;2023-08-30T06:41:17;14.40;17.80
8152;DHT22;4117;53.622;9.958;2023-08-30T06:43:44;14.40;13.30
8152;DHT22;4117;53.622;9.958;2023-08-30T06:46:11;14.40;9.10
8152;DHT22;4117;53.622;9.958;2023-08-30T06:48:39;14.50;4.10
8152;DHT22;4117;53.622;9.958;2023-08-30T06:51:10;14.50;3.40
8152;DHT22;4117;53.622;9.958;2023-08-30T06:53:37;14.50;2.90
8152;DHT22;4117;53.622;9.958;2023-08-30T06:56:04;14.50;4.00
8152;DHT22;4117;53.622;9.958;2023-08-30T06:58:31;14.60;1.00
8152;DHT22;4117;53.622;9.958;2023-08-30T07:00:58;14.60;1.00
8152;DHT22;4117;53.622;9.958;2023-08-30T07:03:25;14.60;1.00
8152;DHT22;4117;53.622;9.958;2023-08-30T07:05:52;14.70;1.00
8152;DHT22;4117;53.622;9.958;2023-08-30T07:08:23;14.70;1.00
8152;DHT22;4117;53.622;9.958;2023-08-30T07:10:53;14.70;1.00
8152;DHT22;4117;53.622;9.958;2023-08-30T07:13:20;14.80;1.00
8152;DHT22;4117;53.622;9.958;2023-08-30T07:15:47;14.80;1.00
8152;DHT22;4117;53.622;9.958;2023-08-30T07:18:14;14.80;1.00
8152;DHT22;4117;53.622;9.958;2023-08-30T07:20:44;14.90;1.00
8152;DHT22;4117;53.622;9.958;2023-08-30T07:23:11;14.90;1.00
8152;DHT22;4117;53.622;9.958;2023-08-30T07:25:39;14.90;1.00
8152;DHT22;4117;53.622;9.958;2023-08-30T07:28:06;15.00;1.00
8152;DHT22;4117;53.622;9.958;2023-08-30T07:30:33;15.00;1.00
8152;DHT22;4117;53.622;9.958;2023-08-30T07:33:02;15.00;1.00
8152;DHT22;4117;53.622;9.958;2023-08-30T07:35:30;15.10;1.00
8152;DHT22;4117;53.622;9.958;2023-08-30T07:37:58;15.10;1.00
8152;DHT22;4117;53.622;9.958;2023-08-30T07:40:25;15.20;1.00
8152;DHT22;4117;53.622;9.958;2023-08-30T07:42:55;15.20;1.00
8152;DHT22;4117;53.622;9.958;2023-08-30T07:45:22;15.30;1.00
8152;DHT22;4117;53.622;9.958;2023-08-30T07:47:49;15.30;1.00
8152;DHT22;4117;53.622;9.958;2023-08-30T07:50:19;15.30;1.00
8152;DHT22;4117;53.622;9.958;2023-08-30T07:52:49;15.40;1.00
8152;DHT22;4117;53.622;9.958;2023-08-30T07:55:16;15.40;1.00
8152;DHT22;4117;53.622;9.958;2023-08-30T07:57:43;15.40;1.00
8152;DHT22;4117;53.622;9.958;2023-08-30T08:00:13;15.50;1.00
8152;DHT22;4117;53.622;9.958;2023-08-30T08:02:41;15.50;1.00
8152;DHT22;4117;53.622;9.958;2023-08-30T08:05:08;15.50;1.00
8152;DHT22;4117;53.622;9.958;2023-08-30T08:07:37;15.50;1.00
8152;DHT22;4117;53.622;9.958;2023-08-30T08:10:05;15.60;1.00
8152;DHT22;4117;53.622;9.958;2023-08-30T08:12:33;15.60;1.00
8152;DHT22;4117;53.622;9.958;2023-08-30T08:15:00;15.70;1.00
8152;DHT22;4117;53.622;9.958;2023-08-30T08:17:29;15.70;1.00
8152;DHT22;4117;53.622;9.958;2023-08-30T08:19:56;15.70;1.00
8152;DHT22;4117;53.622;9.958;2023-08-30T08:22:23;15.80;1.00
8152;DHT22;4117;53.622;9.958;2023-08-30T08:24:50;15.70;1.00
8152;DHT22;4117;53.622;9.958;2023-08-30T08:27:19;15.80;1.00
8152;DHT22;4117;53.622;9.958;2023-08-30T08:29:46;15.80;1.00
8152;DHT22;4117;53.622;9.958;2023-08-30T08:32:13;15.90;1.00
8152;DHT22;4117;53.622;9.958;2023-08-30T08:34:41;15.90;1.00
8152;DHT22;4117;53.622;9.958;2023-08-30T08:37:08;16.00;1.00
8152;DHT22;4117;53.622;9.958;2023-08-30T08:39:35;16.00;1.00
8152;DHT22;4117;53.622;9.958;2023-08-30T08:42:04;16.10;1.00
8152;DHT22;4117;53.622;9.958;2023-08-30T08:44:32;16.10;1.00
8152;DHT22;4117;53.622;9.958;2023-08-30T08:46:59;16.20;1.00
8152;DHT22;4117;53.622;9.958;2023-08-30T08:49:28;16.20;1.00
8152;DHT22;4117;53.622;9.958;2023-08-30T08:51:58;16.20;1.00
8152;DHT22;4117;53.622;9.958;2023-08-30T08:54:25;16.20;1.00
8152;DHT22;4117;53.622;9.958;2023-08-30T08:56:56;16.20;1.00
8152;DHT22;4117;53.622;9.958;2023-08-30T08:59:24;16.30;1.00
8152;DHT22;4117;53.622;9.958;2023-08-30T09:01:51;16.30;1.00
8152;DHT22;4117;53.622;9.958;2023-08-30T09:04:19;16.30;1.00
8152;DHT22;4117;53.622;9.958;2023-08-30T09:06:46;16.30;1.00
8152;DHT22;4117;53.622;9.958;2023-08-30T09:09:15;16.40;1.00
8152;DHT22;4117;53.622;9.958;2023-08-30T09:11:42;16.40;1.00
8152;DHT22;4117;53.622;9.958;2023-08-30T09:14:09;16.50;1.00
8152;DHT22;4117;53.622;9.958;2023-08-30T09:16:36;16.50;1.00
8152;DHT22;4117;53.622;9.958;2023-08-30T09:19:04;16.50;1.00
8152;DHT22;4117;53.622;9.958;2023-08-30T09:21:33;16.50;1.00
8152;DHT22;4117;53.622;9.958;2023-08-30T09:24:00;16.60;1.00
8152;DHT22;4117;53.622;9.958;2023-08-30T09:26:30;16.60;1.00
8152;DHT22;4117;53.622;9.958;2023-08-30T09:29:01;16.70;1.00
8152;DHT22;4117;53.622;9.958;2023-08-30T09:31:33;16.70;1.00
8152;DHT22;4117;53.622;9.958;2023-08-30T09:34:00;16.80;1.00
8152;DHT22;4117;53.622;9.958;2023-08-30T09:36:33;16.70;1.00
8152;DHT22;4117;53.622;9.958;2023-08-30T09:39:03;16.70;1.00
8152;DHT22;4117;53.622;9.958;2023-08-30T09:41:32;16.80;1.00
8152;DHT22;4117;53.622;9.958;2023-08-30T09:43:59;16.80;1.00
8152;DHT22;4117;53.622;9.958;2023-08-30T09:46:27;16.80;1.00
8152;DHT22;4117;53.622;9.958;2023-08-30T09:48:55;16.70;1.00
8152;DHT22;4117;53.622;9.958;2023-08-30T09:51:25;16.70;1.00
8152;DHT22;4117;53.622;9.958;2023-08-30T09:53:58;16.70;1.00
8152;DHT22;4117;53.622;9.958;2023-08-30T09:56:33;16.70;1.00
8152;DHT22;4117;53.622;9.958;2023-08-30T09:59:02;16.70;1.00
8152;DHT22;4117;53.622;9.958;2023-08-30T10:01:30;16.70;1.00
8152;DHT22;4117;53.622;9.958;2023-08-30T10:03:57;16.80;1.00
8152;DHT22;4117;53.622;9.958;2023-08-30T10:06:24;16.80;1.00
8152;DHT22;4117;53.622;9.958;2023-08-30T10:08:53;16.80;1.00
8152;DHT22;4117;53.622;9.958;2023-08-30T10:11:21;16.80;1.00
8152;DHT22;4117;53.622;9.958;2023-08-30T10:13:51;16.80;1.00
8152;DHT22;4117;53.622;9.958;2023-08-30T10:16:26;16.90;1.00
8152;DHT22;4117;53.622;9.958;2023-08-30T10:18:58;16.90;1.00
8152;DHT22;4117;53.622;9.958;2023-08-30T10:21:29;16.90;1.00
8152;DHT22;4117;53.622;9.958;2023-08-30T10:23:58;16.90;1.00
8152;DHT22;4117;53.622;9.958;2023-08-30T10:26:29;16.90;1.00
8152;DHT22;4117;53.622;9.958;2023-08-30T10:28:59;16.90;1.00
8152;DHT22;4117;53.622;9.958;2023-08-30T10:31:27;17.00;1.00
8152;DHT22;4117;53.622;9.958;2023-08-30T10:33:54;16.90;1.00
8152;DHT22;4117;53.622;9.958;2023-08-30T10:36:22;16.90;1.00
8152;DHT22;4117;53.622;9.958;2023-08-30T10:38:50;17.00;1.00
8152;DHT22;4117;53.622;9.958;2023-08-30T10:41:26;17.10;1.00
8152;DHT22;4117;53.622;9.958;2023-08-30T10:43:56;17.10;1.00
8152;DHT22;4117;53.622;9.958;2023-08-30T10:46:32;17.20;1.00
8152;DHT22;4117;53.622;9.958;2023-08-30T10:49:09;17.30;1.00
8152;DHT22;4117;53.622;9.958;2023-08-30T10:51:37;17.20;1.00
8152;DHT22;4117;53.622;9.958;2023-08-30T10:54:11;17.20;1.00
8152;DHT22;4117;53.622;9.958;2023-08-30T10:56:46;17.30;1.00
8152;DHT22;4117;53.622;9.958;2023-08-30T10:59:17;17.30;1.00
8152;DHT22;4117;53.622;9.958;2023-08-30T11:01:47;17.30;1.00
8152;DHT22;4117;53.622;9.958;2023-08-30T11:04:15;17.40;1.00
8152;DHT22;4117;53.622;9.958;2023-08-30T11:06:43;17.40;1.00
8152;DHT22;4117;53.622;9.958;2023-08-30T11:09:13;17.40;1.00
8152;DHT22;4117;53.622;9.958;2023-08-30T11:11:43;17.50;1.00
8152;DHT22;4117;53.622;9.958;2023-08-30T11:14:11;17.50;1.00
8152;DHT22;4117;53.622;9.958;2023-08-30T11:16:41;17.60;1.00
8152;DHT22;4117;53.622;9.958;2023-08-30T11:19:10;17.70;1.00
8152;DHT22;4117;53.622;9.958;2023-08-30T11:21:39;17.70;1.00
8152;DHT22;4117;53.622;9.958;2023-08-30T11:24:06;17.70;1.00
8152;DHT22;4117;53.622;9.958;2023-08-30T11:26:34;17.80;1.00
8152;DHT22;4117;53.622;9.958;2023-08-30T11:29:05;17.80;1.00
8152;DHT22;4117;53.622;9.958;2023-08-30T11:31:32;17.90;1.00
8152;DHT22;4117;53.622;9.958;2023-08-30T11:33:59;17.90;1.00
8152;DHT22;4117;53.622;9.958;2023-08-30T11:36:29;17.90;1.00
8152;DHT22;4117;53.622;9.958;2023-08-30T11:38:57;17.80;1.00
8152;DHT22;4117;53.622;9.958;2023-08-30T11:41:24;17.90;1.00
8152;DHT22;4117;53.622;9.958;2023-08-30T11:43:52;18.00;1.00
8152;DHT22;4117;53.622;9.958;2023-08-30T11:46:20;18.00;1.00
8152;DHT22;4117;53.622;9.958;2023-08-30T11:48:49;18.00;1.00
8152;DHT22;4117;53.622;9.958;2023-08-30T11:51:17;18.00;1.00
8152;DHT22;4117;53.622;9.958;2023-08-30T11:53:46;18.00;1.00
8152;DHT22;4117;53.622;9.958;2023-08-30T11:56:13;18.00;1.00
8152;DHT22;4117;53.622;9.958;2023-08-30T11:58:40;18.00;1.00
8152;DHT22;4117;53.622;9.958;2023-08-30T12:01:09;18.10;1.00
8152;DHT22;4117;53.622;9.958;2023-08-30T12:03:36;18.10;1.00
8152;DHT22;4117;53.622;9.958;2023-08-30T12:06:09;18.20;1.00
8152;DHT22;4117;53.622;9.958;2023-08-30T12:08:36;18.20;1.00
8152;DHT22;4117;53.622;9.958;2023-08-30T12:11:17;18.20;1.00
8152;DHT22;4117;53.622;9.958;2023-08-30T12:13:45;18.20;1.00
8152;DHT22;4117;53.622;9.958;2023-08-30T12:16:16;18.20;1.00
8152;DHT22;4117;53.622;9.958;2023-08-30T12:18:43;18.20;1.00
8152;DHT22;4117;53.622;9.958;2023-08-30T12:21:10;18.20;1.00
8152;DHT22;4117;53.622;9.958;2023-08-30T12:23:40;18.20;1.00
8152;DHT22;4117;53.622;9.958;2023-08-30T12:26:10;18.20;1.00
8152;DHT22;4117;53.622;9.958;2023-08-30T12:28:38;18.30;1.00
8152;DHT22;4117;53.622;9.958;2023-08-30T12:31:06;18.30;1.00
8152;DHT22;4117;53.622;9.958;2023-08-30T12:33:34;18.30;1.00
8152;DHT22;4117;53.622;9.958;2023-08-30T12:36:02;18.20;1.00
8152;DHT22;4117;53.622;9.958;2023-08-30T12:38:29;18.30;1.00
8152;DHT22;4117;53.622;9.958;2023-08-30T12:40:56;18.30;1.00
8152;DHT22;4117;53.622;9.958;2023-08-30T12:43:25;18.30;1.00
8152;DHT22;4117;53.622;9.958;2023-08-30T12:45:54;18.30;1.00
8152;DHT22;4117;53.622;9.958;2023-08-30T12:48:21;18.20;1.00
8152;DHT22;4117;53.622;9.958;2023-08-30T12:50:48;18.20;1.00
8152;DHT22;4117;53.622;9.958;2023-08-30T12:53:16;18.20;1.00
8152;DHT22;4117;53.622;9.958;2023-08-30T12:55:43;18.30;1.00
8152;DHT22;4117;53.622;9.958;2023-08-30T12:58:10;18.40;1.00
8152;DHT22;4117;53.622;9.958;2023-08-30T13:00:41;18.40;1.00
8152;DHT22;4117;53.622;9.958;2023-08-30T13:03:08;18.50;1.00
8152;DHT22;4117;53.622;9.958;2023-08-30T13:05:35;18.60;1.00
8152;DHT22;4117;53.622;9.958;2023-08-30T13:08:02;18.60;1.00
8152;DHT22;4117;53.622;9.958;2023-08-30T13:10:30;18.60;1.00
8152;DHT22;4117;53.622;9.958;2023-08-30T13:12:57;18.60;1.00
8152;DHT22;4117;53.622;9.958;2023-08-30T13:15:24;18.60;1.00
8152;DHT22;4117;53.622;9.958;2023-08-30T13:17:52;18.60;1.00
8152;DHT22;4117;53.622;9.958;2023-08-30T13:20:21;18.60;1.00
8152;DHT22;4117;53.622;9.958;2023-08-30T13:22:48;18.70;1.00
8152;DHT22;4117;53.622;9.958;2023-08-30T13:25:18;18.80;1.00
8152;DHT22;4117;53.622;9.958;2023-08-30T13:27:46;18.80;1.00
8152;DHT22;4117;53.622;9.958;2023-08-30T13:30:13;18.80;1.00
8152;DHT22;4117;53.622;9.958;2023-08-30T13:32:40;18.80;1.00
8152;DHT22;4117;53.622;9.958;2023-08-30T13:35:09;18.80;1.00
8152;DHT22;4117;53.622;9.958;2023-08-30T13:37:36;18.80;1.00
8152;DHT22;4117;53.622;9.958;2023-08-30T13:40:03;18.70;1.00
8152;DHT22;4117;53.622;9.958;2023-08-30T13:42:36;18.70;1.00
8152;DHT22;4117;53.622;9.958;2023-08-30T13:45:03;18.70;1.00
8152;DHT22;4117;53.622;9.958;2023-08-30T13:47:31;18.70;1.00
8152;DHT22;4117;53.622;9.958;2023-08-30T13:49:58;18.80;1.00
8152;DHT22;4117;53.622;9.958;2023-08-30T13:52:32;18.80;1.00
8152;DHT22;4117;53.622;9.958;2023-08-30T13:54:59;18.90;1.00
8152;DHT22;4117;53.622;9.958;2023-08-30T13:57:26;19.00;1.00
8152;DHT22;4117;53.622;9.958;2023-08-30T13:59:55;19.10;1.00
8152;DHT22;4117;53.622;9.958;2023-08-30T14:02:22;19.10;1.00
8152;DHT22;4117;53.622;9.958;2023-08-30T14:04:53;19.20;1.00
8152;DHT22;4117;53.622;9.958;2023-08-30T14:07:31;19.20;1.00
8152;DHT22;4117;53.622;9.958;2023-08-30T14:09:58;19.10;1.00
8152;DHT22;4117;53.622;9.958;2023-08-30T14:12:25;19.10;1.00
8152;DHT22;4117;53.622;9.958;2023-08-30T14:14:52;19.10;1.00
8152;DHT22;4117;53.622;9.958;2023-08-30T14:17:19;19.10;1.00
8152;DHT22;4117;53.622;9.958;2023-08-30T14:19:46;19.20;1.00
8152;DHT22;4117;53.622;9.958;2023-08-30T14:22:14;19.20;1.00
8152;DHT22;4117;53.622;9.958;2023-08-30T14:24:42;19.20;1.00
8152;DHT22;4117;53.622;9.958;2023-08-30T14:27:10;19.10;1.00
8152;DHT22;4117;53.622;9.958;2023-08-30T14:29:37;19.10;1.00
8152;DHT22;4117;53.622;9.958;2023-08-30T14:32:04;19.10;1.00
8152;DHT22;4117;53.622;9.958;2023-08-30T14:34:31;19.00;1.00
8152;DHT22;4117;53.622;9.958;2023-08-30T14:36:58;19.00;1.00
8152;DHT22;4117;53.622;9.958;2023-08-30T14:39:26;19.00;1.00
8152;DHT22;4117;53.622;9.958;2023-08-30T14:41:56;19.00;1.00
8152;DHT22;4117;53.622;9.958;2023-08-30T14:44:23;18.90;1.00
8152;DHT22;4117;53.622;9.958;2023-08-30T14:46:51;18.90;1.00
8152;DHT22;4117;53.622;9.958;2023-08-30T14:49:18;18.90;1.00
8152;DHT22;4117;53.622;9.958;2023-08-30T14:51:45;18.90;1.00
8152;DHT22;4117;53.622;9.958;2023-08-30T14:54:12;18.80;1.00
8152;DHT22;4117;53.622;9.958;2023-08-30T14:56:44;18.90;1.00
8152;DHT22;4117;53.622;9.958;2023-08-30T14:59:12;18.90;1.00
8152;DHT22;4117;53.622;9.958;2023-08-30T15:01:39;18.90;1.00
8152;DHT22;4117;53.622;9.958;2023-08-30T15:04:06;18.90;1.00
8152;DHT22;4117;53.622;9.958;2023-08-30T15:06:34;18.80;1.00
8152;DHT22;4117;53.622;9.958;2023-08-30T15:09:02;18.80;1.00
8152;DHT22;4117;53.622;9.958;2023-08-30T15:11:29;18.80;1.00
8152;DHT22;4117;53.622;9.958;2023-08-30T15:13:57;18.80;1.00
8152;DHT22;4117;53.622;9.958;2023-08-30T15:16:25;18.80;1.00
8152;DHT22;4117;53.622;9.958;2023-08-30T15:18:52;18.70;1.00
8152;DHT22;4117;53.622;9.958;2023-08-30T15:21:19;18.70;1.00
8152;DHT22;4117;53.622;9.958;2023-08-30T15:23:47;18.70;1.00
8152;DHT22;4117;53.622;9.958;2023-08-30T15:26:22;18.70;1.00
8152;DHT22;4117;53.622;9.958;2023-08-30T15:28:52;18.70;1.00
8152;DHT22;4117;53.622;9.958;2023-08-30T15:31:19;18.70;1.00
8152;DHT22;4117;53.622;9.958;2023-08-30T15:33:48;18.60;1.00
8152;DHT22;4117;53.622;9.958;2023-08-30T15:36:15;18.60;1.00
8152;DHT22;4117;53.622;9.958;2023-08-30T15:38:42;18.60;1.00
8152;DHT22;4117;53.622;9.958;2023-08-30T15:41:14;18.60;1.00
8152;DHT22;4117;53.622;9.958;2023-08-30T15:43:41;18.60;1.00
8152;DHT22;4117;53.622;9.958;2023-08-30T15:46:09;18.50;1.00
8152;DHT22;4117;53.622;9.958;2023-08-30T15:48:38;18.50;1.00
8152;DHT22;4117;53.622;9.958;2023-08-30T15:51:06;18.50;1.00
8152;DHT22;4117;53.622;9.958;2023-08-30T15:53:35;18.50;1.00
8152;DHT22;4117;53.622;9.958;2023-08-30T15:56:02;18.40;1.00
8152;DHT22;4117;53.622;9.958;2023-08-30T15:58:30;18.40;1.00
8152;DHT22;4117;53.622;9.958;2023-08-30T16:01:03;18.40;1.00
8152;DHT22;4117;53.622;9.958;2023-08-30T16:03:30;18.40;1.00
8152;DHT22;4117;53.622;9.958;2023-08-30T16:06:00;18.40;1.00
8152;DHT22;4117;53.622;9.958;2023-08-30T16:08:28;18.40;1.00
8152;DHT22;4117;53.622;9.958;2023-08-30T16:10:55;18.40;1.00
8152;DHT22;4117;53.622;9.958;2023-08-30T16:13:22;18.30;1.00
8152;DHT22;4117;53.622;9.958;2023-08-30T16:15:49;18.30;1.00
8152;DHT22;4117;53.622;9.958;2023-08-30T16:18:16;18.30;1.00
8152;DHT22;4117;53.622;9.958;2023-08-30T16:20:43;18.20;1.00
8152;DHT22;4117;53.622;9.958;2023-08-30T16:23:10;18.20;1.00
8152;DHT22;4117;53.622;9.958;2023-08-30T16:25:38;18.20;1.00